Time;durP1;ratioP1;P1;durP2;ratioP2;P2;SDS_P1;SDS_P2;PMS_P1;PMS_P2;Temp;Humidity;BMP_temperature;BMP_pressure;BME280_temperature;BME280_humidity;BME280_pressure;Samples;Min_cycle;Max_cycle;Signal;HPM_P1;HPM_P2
2021/04/13 00:02:28;;;;;;;2.13;1.85;;;;;;;;;;4971014;28;20031;-62
2021/04/13 00:05:11;;;;;;;3.33;2.15;;;;;;;;;;4971054;28;20039;-62
2021/04/13 00:07:39;;;;;;;2.20;1.90;;;;;;;;;;4974677;28;20044;-62
2021/04/13 00:10:13;;;;;;;2.50;1.90;;;;;;;;;;4969878;28;20028;-62
2021/04/13 00:12:39;;;;;;;2.20;2.00;;;;;;;;;;4974754;28;20036;-62
2021/04/13 00:15:16;;;;;;;2.17;1.90;;;;;;;;;;4974894;28;20043;-62
2021/04/13 00:17:42;;;;;;;2.25;2.00;;;;;;;;;;4973472;28;20031;-62
2021/04/13 00:20:19;;;;;;;2.75;2.00;;;;;;;;;;4969403;28;20039;-62
2021/04/13 00:22:45;;;;;;;2.60;2.13;;;;;;;;;;4954874;28;20097;-62
2021/04/13 00:25:20;;;;;;;2.85;2.10;;;;;;;;;;4954484;28;20081;-62
2021/04/13 00:27:47;;;;;;;2.53;2.17;;;;;;;;;;4969492;28;20039;-62
2021/04/13 00:30:15;;;;;;;2.20;2.00;;;;;;;;;;4974679;28;20130;-63
2021/04/13 00:32:58;;;;;;;2.60;2.40;;;;;;;;;;4954099;28;20961;-62
2021/04/13 00:35:34;;;;;;;2.80;2.30;;;;;;;;;;4956487;28;20075;-62
2021/04/13 00:38:17;;;;;;;3.80;2.65;;;;;;;;;;4973412;28;20055;-62
2021/04/13 00:40:44;;;;;;;3.53;2.80;;;;;;;;;;4970161;28;20035;-62
2021/04/13 00:43:10;;;;;;;2.55;2.35;;;;;;;;;;4954868;28;20109;-62
2021/04/13 00:45:37;;;;;;;3.63;2.92;;;;;;;;;;4970032;28;20643;-62
2021/04/13 00:48:03;;;;;;;3.92;3.20;;;;;;;;;;4954939;28;20031;-62
2021/04/13 00:50:40;;;;;;;3.15;2.85;;;;;;;;;;4953664;28;20032;-62
2021/04/13 00:53:07;;;;;;;3.60;3.17;;;;;;;;;;4954712;28;20144;-62
2021/04/13 00:56:01;;;;;;;4.13;3.28;;;;;;;;;;4953663;28;20037;-62
2021/04/13 00:58:30;;;;;;;3.50;3.20;;;;;;;;;;4971956;28;20074;-62
2021/04/13 01:00:58;;;;;;;4.53;3.75;;;;;;;;;;4970811;28;20043;-62
2021/04/13 01:03:24;;;;;;;4.00;3.60;;;;;;;;;;4954111;28;20022;-62
2021/04/13 01:05:57;;;;;;;4.25;3.47;;;;;;;;;;4953606;28;20584;-62
2021/04/13 01:08:34;;;;;;;5.28;3.72;;;;;;;;;;4969596;28;20122;-62
2021/04/13 01:11:20;;;;;;;4.40;3.72;;;;;;;;;;4985310;28;20142;-62
2021/04/13 01:13:50;;;;;;;5.32;4.05;;;;;;;;;;4982881;28;20103;-62
2021/04/13 01:16:21;;;;;;;4.30;3.88;;;;;;;;;;4969522;28;20039;-62
2021/04/13 01:18:53;;;;;;;4.40;3.90;;;;;;;;;;4953807;28;20046;-62
2021/04/13 01:21:39;;;;;;;4.75;4.05;;;;;;;;;;4954615;28;20123;-62
2021/04/13 01:24:21;;;;;;;5.25;4.20;;;;;;;;;;4971404;28;20884;-62
2021/04/13 01:26:47;;;;;;;;;;;;;;;;;;4956679;28;20031;-62
2021/04/13 01:29:13;;;;;;;6.05;4.72;;;;;;;;;;4971521;28;20522;-62
2021/04/13 01:31:49;;;;;;;5.70;4.57;;;;;;;;;;4969240;28;20051;-62
2021/04/13 01:34:39;;;;;;;5.30;4.60;;;;;;;;;;4952496;28;20086;-62
2021/04/13 01:37:36;;;;;;;5.60;4.53;;;;;;;;;;4972466;28;20043;-62
2021/04/13 01:42:38;;;;;;;6.38;4.57;;;;;;;;;;4986309;28;20047;-62
2021/04/13 01:45:14;;;;;;;5.25;4.38;;;;;;;;;;4952700;28;20043;-62
2021/04/13 01:47:40;;;;;;;6.28;4.80;;;;;;;;;;4948758;28;20032;-62
2021/04/13 01:50:18;;;;;;;6.63;5.07;;;;;;;;;;4951936;28;20506;-62
2021/04/13 01:52:46;;;;;;;6.30;5.28;;;;;;;;;;4970098;28;20036;-62
2021/04/13 01:55:23;;;;;;;5.85;4.93;;;;;;;;;;4971307;28;20511;-62
2021/04/13 01:57:55;;;;;;;6.72;5.38;;;;;;;;;;4969348;28;20060;-62
2021/04/13 02:00:48;;;;;;;6.13;4.90;;;;;;;;;;4969512;28;20035;-62
2021/04/13 02:03:17;;;;;;;7.55;5.82;;;;;;;;;;4970143;28;20035;-62
2021/04/13 02:05:46;;;;;;;7.50;5.63;;;;;;;;;;4970202;28;20077;-62
2021/04/13 02:08:20;;;;;;;6.80;5.32;;;;;;;;;;4951992;28;20098;-62
2021/04/13 02:11:07;;;;;;;7.95;5.93;;;;;;;;;;4970291;28;20043;-62
2021/04/13 02:13:40;;;;;;;7.03;5.80;;;;;;;;;;4966354;28;20130;-62
2021/04/13 02:16:10;;;;;;;7.47;5.88;;;;;;;;;;4949801;28;20758;-62
2021/04/13 02:18:41;;;;;;;7.30;5.95;;;;;;;;;;4968369;28;20035;-62
2021/04/13 02:21:10;;;;;;;7.20;5.85;;;;;;;;;;4969028;28;20066;-62
2021/04/13 02:23:36;;;;;;;8.15;6.63;;;;;;;;;;4968809;28;20163;-62
2021/04/13 02:26:02;;;;;;;7.45;5.95;;;;;;;;;;4981629;28;20919;-62
2021/04/13 02:28:28;;;;;;;7.50;5.85;;;;;;;;;;4951750;28;20098;-62
2021/04/13 02:30:53;;;;;;;8.35;6.78;;;;;;;;;;4966367;28;20493;-62
2021/04/13 02:33:26;;;;;;;8.38;5.88;;;;;;;;;;4950419;28;20023;-62
2021/04/13 02:35:52;;;;;;;8.82;6.93;;;;;;;;;;4969106;28;20054;-62
2021/04/13 02:38:23;;;;;;;7.70;6.22;;;;;;;;;;4966890;28;20041;-62
2021/04/13 02:41:09;;;;;;;4.55;3.72;;;;;;;;;;4967269;28;20041;-62
2021/04/13 02:43:42;;;;;;;7.90;6.18;;;;;;;;;;4985264;28;20039;-62
2021/04/13 02:46:21;;;;;;;8.75;6.90;;;;;;;;;;4954112;28;20031;-62
2021/04/13 02:49:07;;;;;;;7.40;6.32;;;;;;;;;;4967660;28;20073;-62
2021/04/13 02:51:33;;;;;;;8.10;6.28;;;;;;;;;;4954403;28;20098;-62
2021/04/13 02:53:59;;;;;;;9.00;6.55;;;;;;;;;;4969125;28;20047;-62
2021/04/13 02:56:27;;;;;;;8.38;6.53;;;;;;;;;;4969215;28;20066;-62
2021/04/13 02:58:53;;;;;;;8.77;6.93;;;;;;;;;;4951335;28;20551;-62
2021/04/13 03:01:21;;;;;;;8.85;6.88;;;;;;;;;;4970702;28;20035;-62
2021/04/13 03:03:46;;;;;;;7.90;6.47;;;;;;;;;;4969216;28;20035;-62
2021/04/13 03:06:12;;;;;;;8.63;6.32;;;;;;;;;;4969713;28;20493;-62
2021/04/13 03:08:40;;;;;;;8.27;6.53;;;;;;;;;;4952227;28;20767;-62
2021/04/13 03:11:26;;;;;;;9.07;6.72;;;;;;;;;;4982924;28;20043;-62
2021/04/13 03:13:52;;;;;;;9.00;6.28;;;;;;;;;;4965815;28;20043;-62
2021/04/13 03:16:19;;;;;;;7.78;6.15;;;;;;;;;;4950517;28;20038;-62
2021/04/13 03:18:45;;;;;;;7.93;6.13;;;;;;;;;;4970951;28;20039;-62
2021/04/13 03:21:28;;;;;;;8.48;6.45;;;;;;;;;;4972078;28;20031;-62
2021/04/13 03:23:53;;;;;;;8.15;6.20;;;;;;;;;;4950822;28;20042;-62
2021/04/13 03:26:23;;;;;;;8.40;6.38;;;;;;;;;;4969972;28;20067;-62
2021/04/13 03:28:53;;;;;;;7.68;5.80;;;;;;;;;;4952056;28;20034;-62
2021/04/13 03:31:18;;;;;;;8.40;6.45;;;;;;;;;;4955300;28;20189;-62
2021/04/13 03:33:44;;;;;;;8.88;6.78;;;;;;;;;;4956199;28;20045;-62
2021/04/13 03:36:22;;;;;;;7.85;6.47;;;;;;;;;;4970266;28;20584;-62
2021/04/13 03:38:51;;;;;;;9.15;6.85;;;;;;;;;;4954602;28;20067;-62
2021/04/13 03:41:18;;;;;;;7.60;6.13;;;;;;;;;;4976545;28;20027;-62
2021/04/13 03:43:43;;;;;;;7.65;5.75;;;;;;;;;;4953780;28;20066;-62
2021/04/13 03:46:10;;;;;;;8.98;6.32;;;;;;;;;;4953402;28;20543;-62
2021/04/13 03:48:35;;;;;;;8.60;6.35;;;;;;;;;;4952369;28;20043;-62
2021/04/13 03:51:09;;;;;;;8.25;5.80;;;;;;;;;;4954369;28;20027;-62
2021/04/13 03:53:45;;;;;;;8.15;5.57;;;;;;;;;;4955381;28;20162;-62
2021/04/13 03:56:13;;;;;;;8.43;5.95;;;;;;;;;;4969020;28;20035;-62
2021/04/13 03:58:41;;;;;;;7.80;5.85;;;;;;;;;;4972707;28;20035;-62
2021/04/13 04:01:07;;;;;;;7.65;6.05;;;;;;;;;;4972472;28;20074;-62
2021/04/13 04:03:34;;;;;;;8.27;6.43;;;;;;;;;;4954516;28;20133;-62
2021/04/13 04:06:00;;;;;;;6.78;5.60;;;;;;;;;;4974391;28;20104;-62
2021/04/13 04:08:48;;;;;;;8.00;5.60;;;;;;;;;;4954453;28;20032;-62
2021/04/13 04:11:13;;;;;;;7.45;5.93;;;;;;;;;;4973412;28;20524;-62
2021/04/13 04:13:49;;;;;;;6.95;5.13;;;;;;;;;;4968879;28;20043;-62
2021/04/13 04:16:31;;;;;;;7.60;5.07;;;;;;;;;;4953555;28;20410;-62
2021/04/13 04:19:13;;;;;;;7.82;5.78;;;;;;;;;;4985119;28;20039;-62
2021/04/13 04:21:40;;;;;;;7.95;5.60;;;;;;;;;;4971902;28;20034;-62
2021/04/13 04:24:18;;;;;;;7.85;6.00;;;;;;;;;;4974234;28;20561;-62
2021/04/13 04:27:17;;;;;;;7.60;5.80;;;;;;;;;;4966950;28;20027;-62
2021/04/13 04:29:44;;;;;;;7.43;5.50;;;;;;;;;;4968663;28;20054;-62
2021/04/13 04:32:17;;;;;;;7.95;5.78;;;;;;;;;;4955166;28;20062;-62
2021/04/13 04:34:45;;;;;;;7.68;5.57;;;;;;;;;;4972303;28;20035;-62
2021/04/13 04:37:26;;;;;;;8.05;5.32;;;;;;;;;;4973274;28;20038;-62
2021/04/13 04:40:10;;;;;;;6.93;5.30;;;;;;;;;;4968894;28;20118;-62
2021/04/13 04:42:37;;;;;;;7.03;5.32;;;;;;;;;;4971665;28;20067;-62
2021/04/13 04:45:31;;;;;;;7.70;5.53;;;;;;;;;;4968342;28;20024;-62
2021/04/13 04:47:56;;;;;;;7.40;5.07;;;;;;;;;;4953434;28;20042;-62
2021/04/13 04:50:22;;;;;;;7.22;5.13;;;;;;;;;;4971508;28;20516;-62
2021/04/13 04:52:47;;;;;;;7.50;5.13;;;;;;;;;;4970079;28;20397;-62
2021/04/13 04:55:14;;;;;;;8.43;5.35;;;;;;;;;;4968478;28;20064;-63
2021/04/13 04:57:40;;;;;;;7.00;5.13;;;;;;;;;;4971546;28;20039;-63
2021/04/13 05:00:06;;;;;;;7.53;5.50;;;;;;;;;;4968246;28;20039;-63
2021/04/13 05:02:31;;;;;;;7.82;5.00;;;;;;;;;;4972236;28;20763;-62
2021/04/13 05:04:57;;;;;;;7.82;5.50;;;;;;;;;;4971642;28;20262;-63
2021/04/13 05:07:22;;;;;;;7.88;5.30;;;;;;;;;;4973852;28;20046;-63
2021/04/13 05:09:48;;;;;;;7.43;5.15;;;;;;;;;;4970606;28;20035;-63
2021/04/13 05:12:13;;;;;;;7.00;5.20;;;;;;;;;;4986187;28;20035;-63
2021/04/13 05:14:39;;;;;;;6.70;5.15;;;;;;;;;;4970089;28;20027;-63
2021/04/13 05:17:04;;;;;;;6.93;5.32;;;;;;;;;;4970770;28;20046;-63
2021/04/13 05:19:30;;;;;;;7.95;5.63;;;;;;;;;;4982240;28;20110;-63
2021/04/13 05:21:55;;;;;;;8.10;5.75;;;;;;;;;;4970528;28;20517;-63
2021/04/13 05:24:21;;;;;;;7.53;5.55;;;;;;;;;;4971810;28;20037;-63
2021/04/13 05:26:46;;;;;;;6.20;4.88;;;;;;;;;;4969311;28;20474;-63
2021/04/13 05:29:12;;;;;;;6.78;5.22;;;;;;;;;;4969399;28;20042;-63
2021/04/13 05:31:39;;;;;;;7.65;5.90;;;;;;;;;;4970418;28;20041;-63
2021/04/13 05:34:05;;;;;;;8.32;5.53;;;;;;;;;;4970355;28;20042;-63
2021/04/13 05:36:31;;;;;;;7.60;5.05;;;;;;;;;;4969275;28;20050;-63
2021/04/13 05:38:56;;;;;;;6.40;4.70;;;;;;;;;;4951847;28;20071;-63
2021/04/13 05:41:22;;;;;;;6.65;5.03;;;;;;;;;;4954187;28;20071;-63
2021/04/13 05:43:48;;;;;;;7.00;5.05;;;;;;;;;;4951721;28;20920;-63
2021/04/13 05:46:18;;;;;;;6.63;4.63;;;;;;;;;;4971939;28;20895;-63
2021/04/13 05:48:43;;;;;;;6.15;4.65;;;;;;;;;;4966259;28;20035;-63
2021/04/13 05:51:09;;;;;;;6.03;4.63;;;;;;;;;;4969224;28;20507;-63
2021/04/13 05:53:34;;;;;;;6.47;4.80;;;;;;;;;;4984208;28;20032;-63
2021/04/13 05:56:00;;;;;;;6.93;4.35;;;;;;;;;;4966756;28;20584;-63
2021/04/13 05:58:34;;;;;;;6.93;4.60;;;;;;;;;;4984607;28;20030;-63
2021/04/13 06:01:02;;;;;;;6.15;4.40;;;;;;;;;;4965564;28;20042;-63
2021/04/13 06:03:28;;;;;;;6.03;4.10;;;;;;;;;;4949175;28;20082;-63
2021/04/13 06:05:56;;;;;;;5.63;4.30;;;;;;;;;;4968006;28;20943;-63
2021/04/13 06:08:22;;;;;;;6.57;4.10;;;;;;;;;;4967783;28;20035;-63
2021/04/13 06:10:47;;;;;;;5.45;4.00;;;;;;;;;;4967760;28;20023;-64
2021/04/13 06:13:13;;;;;;;6.32;3.85;;;;;;;;;;4969532;28;20042;-63
2021/04/13 06:15:38;;;;;;;5.50;3.90;;;;;;;;;;4984845;28;20047;-63
2021/04/13 06:18:05;;;;;;;5.72;3.88;;;;;;;;;;4984093;28;20050;-63
2021/04/13 06:20:30;;;;;;;6.30;3.92;;;;;;;;;;4951760;28;20561;-65
2021/04/13 06:22:58;;;;;;;5.65;3.90;;;;;;;;;;4966236;28;20039;-63
2021/04/13 06:25:25;;;;;;;5.45;3.95;;;;;;;;;;4969529;28;20394;-62
2021/04/13 06:27:50;;;;;;;5.25;3.60;;;;;;;;;;4970981;28;20509;-62
2021/04/13 06:30:16;;;;;;;5.68;3.53;;;;;;;;;;4966259;28;20036;-62
2021/04/13 06:32:42;;;;;;;5.28;3.55;;;;;;;;;;4969443;28;20047;-62
2021/04/13 06:35:08;;;;;;;5.22;3.55;;;;;;;;;;4969894;28;20111;-62
2021/04/13 06:37:35;;;;;;;5.53;3.88;;;;;;;;;;4968531;28;20031;-62
2021/04/13 06:40:03;;;;;;;4.25;3.42;;;;;;;;;;4952552;28;20038;-62
2021/04/13 06:42:43;;;;;;;4.85;3.53;;;;;;;;;;4966796;28;20035;-62
2021/04/13 06:45:18;;;;;;;5.82;3.90;;;;;;;;;;4966671;28;20075;-62
2021/04/13 06:48:02;;;;;;;7.57;5.43;;;;;;;;;;4968021;28;20038;-62
2021/04/13 06:50:32;;;;;;;6.75;4.28;;;;;;;;;;4967149;28;20028;-62
2021/04/13 06:53:05;;;;;;;5.00;3.85;;;;;;;;;;4968792;28;20067;-62
2021/04/13 06:56:06;;;;;;;5.88;3.67;;;;;;;;;;4967680;28;20039;-62
2021/04/13 06:59:03;;;;;;;5.97;3.58;;;;;;;;;;4952530;28;20039;-62
2021/04/13 07:01:29;;;;;;;6.10;4.00;;;;;;;;;;4969709;28;20043;-62
2021/04/13 07:04:10;;;;;;;6.68;3.80;;;;;;;;;;4949403;28;20030;-62
2021/04/13 07:06:46;;;;;;;5.78;3.35;;;;;;;;;;4965692;28;20075;-62
2021/04/13 07:09:22;;;;;;;6.63;4.15;;;;;;;;;;4967141;28;20043;-62
2021/04/13 07:11:58;;;;;;;5.25;3.28;;;;;;;;;;4948080;28;20161;-62
2021/04/13 07:14:27;;;;;;;5.53;3.20;;;;;;;;;;4969215;28;20118;-62
2021/04/13 07:16:54;;;;;;;3.78;2.70;;;;;;;;;;4966619;28;20039;-62
2021/04/13 07:19:32;;;;;;;4.70;3.08;;;;;;;;;;4965300;28;20198;-62
2021/04/13 07:22:09;;;;;;;4.55;2.83;;;;;;;;;;4949198;28;20035;-62
2021/04/13 07:24:41;;;;;;;4.63;2.80;;;;;;;;;;4967706;28;20045;-62
2021/04/13 07:27:16;;;;;;;5.40;2.80;;;;;;;;;;4965828;28;20469;-62
2021/04/13 07:29:44;;;;;;;3.25;2.58;;;;;;;;;;4963764;28;20103;-62
2021/04/13 07:32:18;;;;;;;6.20;3.65;;;;;;;;;;4969488;28;20509;-62
2021/04/13 07:34:44;;;;;;;5.95;4.03;;;;;;;;;;4967856;28;20046;-62
2021/04/13 07:37:16;;;;;;;7.10;3.72;;;;;;;;;;4967975;28;20603;-62
2021/04/13 07:39:46;;;;;;;5.53;3.53;;;;;;;;;;4951371;28;20062;-62
2021/04/13 07:42:34;;;;;;;5.25;3.67;;;;;;;;;;4967894;28;20090;-62
2021/04/13 07:45:28;;;;;;;4.78;2.75;;;;;;;;;;4964132;28;20074;-62
2021/04/13 07:48:13;;;;;;;6.97;2.80;;;;;;;;;;4967864;28;20071;-62
2021/04/13 07:51:06;;;;;;;4.00;2.67;;;;;;;;;;4968219;28;20040;-62
2021/04/13 07:53:36;;;;;;;6.18;2.78;;;;;;;;;;4969904;28;20166;-62
2021/04/13 07:56:21;;;;;;;3.67;2.50;;;;;;;;;;4985723;28;20057;-62
2021/04/13 07:58:49;;;;;;;4.28;2.42;;;;;;;;;;4972146;28;20051;-62
2021/04/13 08:01:15;;;;;;;5.05;2.63;;;;;;;;;;4949814;28;20035;-62
2021/04/13 08:03:40;;;;;;;5.22;2.90;;;;;;;;;;4966728;28;20040;-62
2021/04/13 08:06:28;;;;;;;5.28;2.80;;;;;;;;;;4968984;28;20053;-62
2021/04/13 08:09:28;;;;;;;4.95;2.50;;;;;;;;;;4970752;28;20067;-62
2021/04/13 08:12:32;;;;;;;4.60;2.60;;;;;;;;;;4980618;28;20063;-62
2021/04/13 08:15:12;;;;;;;4.57;2.63;;;;;;;;;;4963969;28;20595;-62
2021/04/13 08:18:14;;;;;;;4.45;2.30;;;;;;;;;;4968447;28;20957;-62
2021/04/13 08:20:43;;;;;;;4.57;2.10;;;;;;;;;;4968460;28;20063;-62
2021/04/13 08:23:31;;;;;;;4.88;2.88;;;;;;;;;;4971606;28;20053;-62
2021/04/13 08:26:10;;;;;;;4.22;2.80;;;;;;;;;;4949631;28;20066;-62
2021/04/13 08:28:35;;;;;;;2.55;1.75;;;;;;;;;;4968328;28;20045;-62
2021/04/13 08:34:37;;;;;;;3.30;1.80;;;;;;;;;;4972791;28;20031;-62
2021/04/13 08:37:24;;;;;;;4.65;1.60;;;;;;;;;;4973976;28;20093;-62
2021/04/13 08:40:12;;;;;;;3.60;1.88;;;;;;;;;;4972169;28;20044;-62
2021/04/13 08:42:46;;;;;;;3.80;1.80;;;;;;;;;;4971393;28;20043;-62
2021/04/13 08:45:23;;;;;;;3.85;1.75;;;;;;;;;;4971686;28;20076;-62
2021/04/13 08:47:54;;;;;;;3.65;1.70;;;;;;;;;;4969658;28;20043;-62
2021/04/13 08:50:39;;;;;;;5.93;1.88;;;;;;;;;;4971502;28;20043;-62
2021/04/13 08:53:25;;;;;;;5.18;2.05;;;;;;;;;;4972553;28;20118;-62
2021/04/13 08:55:52;;;;;;;4.28;1.70;;;;;;;;;;4971067;28;20264;-62
2021/04/13 08:58:26;;;;;;;3.83;1.73;;;;;;;;;;4954426;28;20197;-62
2021/04/13 09:00:56;;;;;;;4.75;1.60;;;;;;;;;;4970354;28;20027;-62
2021/04/13 09:03:24;;;;;;;3.25;1.60;;;;;;;;;;4948146;28;20039;-62
2021/04/13 09:06:09;;;;;;;3.47;1.30;;;;;;;;;;4970769;28;20038;-62
2021/04/13 09:08:42;;;;;;;3.50;1.20;;;;;;;;;;4968729;28;20480;-62
2021/04/13 09:11:31;;;;;;;3.20;1.17;;;;;;;;;;4968259;28;20490;-62
2021/04/13 09:14:09;;;;;;;4.07;1.52;;;;;;;;;;4952496;28;20035;-61
2021/04/13 09:16:37;;;;;;;3.47;1.17;;;;;;;;;;4950673;28;20098;-62
2021/04/13 09:19:06;;;;;;;2.30;1.00;;;;;;;;;;4952246;28;20035;-61
2021/04/13 09:21:47;;;;;;;4.07;1.30;;;;;;;;;;4941411;28;20040;-61
2021/04/13 09:24:23;;;;;;;3.55;1.20;;;;;;;;;;4972594;28;20138;-60
2021/04/13 09:26:51;;;;;;;1.92;1.13;;;;;;;;;;4968650;28;20090;-61
2021/04/13 09:29:26;;;;;;;3.58;1.40;;;;;;;;;;4969204;28;20508;-61
2021/04/13 09:31:52;;;;;;;3.42;1.23;;;;;;;;;;4970949;28;20083;-62
2021/04/13 09:34:20;;;;;;;2.88;1.10;;;;;;;;;;4967803;28;20074;-62
2021/04/13 09:37:12;;;;;;;2.30;1.10;;;;;;;;;;4969809;28;20043;-62
2021/04/13 09:39:38;;;;;;;3.83;1.17;;;;;;;;;;4970781;28;20067;-62
2021/04/13 09:42:24;;;;;;;2.78;1.10;;;;;;;;;;4966269;28;20561;-62
2021/04/13 09:45:05;;;;;;;2.28;1.23;;;;;;;;;;4965816;28;20422;-63
2021/04/13 09:47:56;;;;;;;2.78;1.20;;;;;;;;;;4965497;28;20024;-62
2021/04/13 09:50:35;;;;;;;2.72;1.23;;;;;;;;;;4970675;28;20043;-62
2021/04/13 09:53:29;;;;;;;2.63;1.20;;;;;;;;;;4969656;28;20031;-62
2021/04/13 09:56:08;;;;;;;3.25;1.00;;;;;;;;;;4943088;28;20118;-62
2021/04/13 09:59:11;;;;;;;2.53;1.10;;;;;;;;;;4967670;28;20616;-62
2021/04/13 10:01:54;;;;;;;5.05;1.13;;;;;;;;;;4969181;28;20039;-62
2021/04/13 10:04:33;;;;;;;3.33;1.05;;;;;;;;;;4955550;28;20034;-61
2021/04/13 10:07:04;;;;;;;2.42;0.90;;;;;;;;;;4968095;28;20035;-62
2021/04/13 10:09:30;;;;;;;2.22;0.90;;;;;;;;;;4971377;28;20067;-63
2021/04/13 10:12:14;;;;;;;3.25;0.90;;;;;;;;;;4953024;28;20042;-64
2021/04/13 10:15:00;;;;;;;2.47;0.77;;;;;;;;;;4970280;28;20997;-62
2021/04/13 10:17:44;;;;;;;2.10;0.73;;;;;;;;;;4957186;28;20055;-61
2021/04/13 10:20:15;;;;;;;1.65;0.63;;;;;;;;;;4969000;28;20049;-63
2021/04/13 10:22:50;;;;;;;2.05;0.60;;;;;;;;;;4970933;28;20073;-63
2021/04/13 10:25:46;;;;;;;2.75;0.90;;;;;;;;;;4968345;28;20110;-63
2021/04/13 10:28:54;;;;;;;3.38;1.20;;;;;;;;;;4970908;28;20035;-63
2021/04/13 10:31:41;;;;;;;3.08;0.82;;;;;;;;;;4966197;28;21040;-61
2021/04/13 10:34:24;;;;;;;3.03;0.80;;;;;;;;;;4966393;28;20539;-61
2021/04/13 10:37:02;;;;;;;2.78;0.88;;;;;;;;;;4971281;28;20043;-62
2021/04/13 10:39:40;;;;;;;2.53;0.60;;;;;;;;;;4985408;28;20039;-62
2021/04/13 10:42:33;;;;;;;1.67;0.75;;;;;;;;;;4968353;28;20097;-61
2021/04/13 10:45:05;;;;;;;1.63;0.70;;;;;;;;;;4968955;28;20048;-63
2021/04/13 10:47:50;;;;;;;2.67;0.60;;;;;;;;;;4971424;28;20035;-62
2021/04/13 10:50:53;;;;;;;2.30;0.80;;;;;;;;;;4983281;28;20070;-61
2021/04/13 10:53:40;;;;;;;1.15;0.60;;;;;;;;;;4967682;28;20039;-64
2021/04/13 10:56:11;;;;;;;2.15;0.70;;;;;;;;;;4973677;28;20046;-61
2021/04/13 10:59:14;;;;;;;2.83;0.70;;;;;;;;;;4968900;28;20530;-60
2021/04/13 11:02:02;;;;;;;2.13;0.77;;;;;;;;;;4970186;28;20027;-59
2021/04/13 11:04:43;;;;;;;1.60;0.70;;;;;;;;;;4980736;28;20541;-59
2021/04/13 11:07:26;;;;;;;2.42;0.90;;;;;;;;;;4964739;28;20042;-59
2021/04/13 11:10:17;;;;;;;2.58;0.60;;;;;;;;;;4968011;28;20192;-59
2021/04/13 11:12:42;;;;;;;1.80;0.60;;;;;;;;;;4958186;28;20529;-59
2021/04/13 11:15:47;;;;;;;3.15;0.77;;;;;;;;;;4968808;28;20043;-59
2021/04/13 11:18:34;;;;;;;2.40;0.70;;;;;;;;;;4955126;28;20036;-59
2021/04/13 11:21:30;;;;;;;1.77;0.60;;;;;;;;;;4968232;28;20035;-59
2021/04/13 11:24:07;;;;;;;2.25;0.70;;;;;;;;;;4968200;28;20073;-59
2021/04/13 11:27:12;;;;;;;1.83;0.55;;;;;;;;;;4970463;28;20188;-59
2021/04/13 11:30:08;;;;;;;2.30;0.70;;;;;;;;;;4967254;28;20046;-59
2021/04/13 11:33:01;;;;;;;1.90;0.60;;;;;;;;;;4969776;28;20039;-60
2021/04/13 11:35:40;;;;;;;1.17;0.50;;;;;;;;;;4967625;28;20123;-60
2021/04/13 11:38:37;;;;;;;2.25;0.60;;;;;;;;;;4964060;28;20035;-59
2021/04/13 11:41:28;;;;;;;1.60;0.70;;;;;;;;;;4969149;28;20039;-60
2021/04/13 11:44:00;;;;;;;2.17;0.60;;;;;;;;;;4969959;28;21030;-60
2021/04/13 11:46:44;;;;;;;;;;;;;;;;;;4969175;28;20035;-59
2021/04/13 11:49:48;;;;;;;1.00;0.50;;;;;;;;;;4967252;28;19923;-60
2021/04/13 11:52:38;;;;;;;1.98;0.55;;;;;;;;;;4930767;28;20108;-60
2021/04/13 11:55:06;;;;;;;2.00;0.60;;;;;;;;;;4934546;28;20103;-59
2021/04/13 11:57:52;;;;;;;1.83;0.70;;;;;;;;;;4960727;28;20054;-60
2021/04/13 12:00:20;;;;;;;2.55;0.50;;;;;;;;;;4972776;28;20223;-59
2021/04/13 12:02:47;;;;;;;1.73;0.50;;;;;;;;;;4971002;28;20027;-60
2021/04/13 12:05:31;;;;;;;1.65;0.60;;;;;;;;;;4968812;28;20039;-59
2021/04/13 12:07:56;;;;;;;2.03;0.70;;;;;;;;;;4967008;28;20039;-60
2021/04/13 12:10:31;;;;;;;1.67;0.70;;;;;;;;;;4972342;28;20027;-60
2021/04/13 12:13:06;;;;;;;1.08;0.50;;;;;;;;;;4971484;28;20042;-60
2021/04/13 12:15:31;;;;;;;1.42;0.80;;;;;;;;;;4971850;28;20045;-60
2021/04/13 12:17:58;;;;;;;0.80;0.45;;;;;;;;;;4968661;28;20517;-59
2021/04/13 12:20:27;;;;;;;0.52;0.40;;;;;;;;;;4952834;28;20039;-60
2021/04/13 12:23:22;;;;;;;1.35;0.60;;;;;;;;;;4967542;28;20036;-59
2021/04/13 12:25:51;;;;;;;1.27;0.50;;;;;;;;;;4972523;28;20040;-59
2021/04/13 12:28:22;;;;;;;2.15;0.73;;;;;;;;;;4969284;28;20027;-59
2021/04/13 12:30:53;;;;;;;;;;;;;;;;;;4973056;28;20094;-59
2021/04/13 12:33:25;;;;;;;0.60;0.50;;;;;;;;;;4965913;28;19922;-61
2021/04/13 12:35:57;;;;;;;2.00;0.60;;;;;;;;;;4970469;28;20121;-61
2021/04/13 12:38:41;;;;;;;1.15;0.52;;;;;;;;;;4968808;28;20046;-60
2021/04/13 12:41:26;;;;;;;1.40;0.60;;;;;;;;;;4970302;28;20027;-60
2021/04/13 12:44:14;;;;;;;2.22;0.90;;;;;;;;;;4971630;28;20504;-59
2021/04/13 12:46:40;;;;;;;3.05;0.90;;;;;;;;;;4968948;28;20134;-60
2021/04/13 12:49:11;;;;;;;3.60;1.25;;;;;;;;;;4968497;28;20035;-59
2021/04/13 12:51:48;;;;;;;2.28;0.88;;;;;;;;;;4969661;28;20112;-60
2021/04/13 12:54:25;;;;;;;1.10;0.50;;;;;;;;;;4987254;28;20713;-60
2021/04/13 12:57:34;;;;;;;2.45;0.70;;;;;;;;;;4968152;28;20666;-60
2021/04/13 13:00:09;;;;;;;2.08;0.70;;;;;;;;;;4969714;28;20034;-60
2021/04/13 13:02:39;;;;;;;3.85;0.77;;;;;;;;;;4968917;28;20118;-60
2021/04/13 13:05:27;;;;;;;1.58;0.70;;;;;;;;;;4967240;28;20928;-59
2021/04/13 13:07:57;;;;;;;1.35;0.50;;;;;;;;;;4968661;28;20042;-60
2021/04/13 13:10:27;;;;;;;1.15;0.52;;;;;;;;;;4981884;28;20084;-60
2021/04/13 13:12:53;;;;;;;2.30;0.60;;;;;;;;;;4967406;28;20426;-59
2021/04/13 13:15:18;;;;;;;1.77;0.50;;;;;;;;;;4971201;28;20053;-60
2021/04/13 13:17:50;;;;;;;1.33;0.50;;;;;;;;;;4972626;28;21178;-60
2021/04/13 13:20:30;;;;;;;1.48;0.50;;;;;;;;;;4973790;28;20040;-60
2021/04/13 13:22:56;;;;;;;2.17;0.50;;;;;;;;;;4969944;28;20121;-60
2021/04/13 13:25:25;;;;;;;1.42;0.40;;;;;;;;;;4968793;28;20030;-60
2021/04/13 13:27:51;;;;;;;0.85;0.40;;;;;;;;;;4953627;28;20130;-60
2021/04/13 13:30:17;;;;;;;1.42;0.60;;;;;;;;;;4970242;28;20486;-60
2021/04/13 13:32:43;;;;;;;2.22;0.85;;;;;;;;;;4970861;28;20027;-59
2021/04/13 13:35:11;;;;;;;2.15;0.50;;;;;;;;;;4953309;28;20053;-60
2021/04/13 13:37:39;;;;;;;1.00;0.60;;;;;;;;;;4973237;28;20022;-60
2021/04/13 13:40:07;;;;;;;1.33;0.65;;;;;;;;;;4951911;28;20090;-60
2021/04/13 13:42:33;;;;;;;2.80;0.60;;;;;;;;;;4971622;28;20035;-60
2021/04/13 13:44:59;;;;;;;1.70;0.70;;;;;;;;;;4955579;28;20481;-60
2021/04/13 13:47:31;;;;;;;1.85;0.50;;;;;;;;;;4966353;28;20035;-60
2021/04/13 13:50:25;;;;;;;2.75;0.73;;;;;;;;;;4969976;28;20137;-60
2021/04/13 13:52:52;;;;;;;2.42;0.85;;;;;;;;;;4952426;28;20044;-60
2021/04/13 13:55:17;;;;;;;2.40;0.63;;;;;;;;;;4968613;28;20039;-60
2021/04/13 13:57:44;;;;;;;2.25;0.60;;;;;;;;;;4968432;28;20992;-60
2021/04/13 14:00:32;;;;;;;1.25;0.40;;;;;;;;;;4969109;28;20047;-60
2021/04/13 14:03:19;;;;;;;2.38;0.82;;;;;;;;;;4985932;28;20039;-59
2021/04/13 14:05:50;;;;;;;1.23;0.70;;;;;;;;;;4969912;28;20038;-60
2021/04/13 14:08:28;;;;;;;2.65;0.70;;;;;;;;;;4951174;28;20041;-60
2021/04/13 14:10:53;;;;;;;0.85;0.50;;;;;;;;;;4949938;28;20042;-60
2021/04/13 14:13:19;;;;;;;0.63;0.45;;;;;;;;;;4965788;28;20049;-59
2021/04/13 14:15:49;;;;;;;0.75;0.47;;;;;;;;;;4966415;28;20047;-60
2021/04/13 14:18:20;;;;;;;1.60;0.70;;;;;;;;;;4968379;28;20063;-59
2021/04/13 14:21:06;;;;;;;1.85;0.50;;;;;;;;;;4968981;28;20038;-60
2021/04/13 14:23:33;;;;;;;2.58;0.68;;;;;;;;;;4970914;28;20044;-59
2021/04/13 14:25:58;;;;;;;1.20;0.50;;;;;;;;;;4951814;28;20142;-60
2021/04/13 14:28:26;;;;;;;1.10;0.47;;;;;;;;;;4967198;28;20045;-58
2021/04/13 14:30:53;;;;;;;2.92;0.68;;;;;;;;;;4967908;28;20039;-58
2021/04/13 14:33:20;;;;;;;1.85;0.60;;;;;;;;;;4966534;28;20102;-59
2021/04/13 14:35:45;;;;;;;1.35;0.55;;;;;;;;;;4964906;28;20047;-59
2021/04/13 14:38:14;;;;;;;0.85;0.43;;;;;;;;;;4969750;28;20509;-58
2021/04/13 14:40:39;;;;;;;2.30;0.60;;;;;;;;;;4949891;28;20035;-59
2021/04/13 14:43:06;;;;;;;1.67;0.73;;;;;;;;;;4984776;28;20043;-57
2021/04/13 14:45:34;;;;;;;1.98;0.52;;;;;;;;;;4967802;28;20078;-58
2021/04/13 14:48:05;;;;;;;1.00;0.60;;;;;;;;;;4968419;28;20102;-58
2021/04/13 14:50:39;;;;;;;1.17;0.60;;;;;;;;;;4965492;28;20409;-59
2021/04/13 14:53:04;;;;;;;1.65;0.40;;;;;;;;;;4971847;28;20093;-59
2021/04/13 14:55:30;;;;;;;0.90;0.43;;;;;;;;;;4969730;28;20572;-60
2021/04/13 14:57:59;;;;;;;1.58;0.60;;;;;;;;;;4966564;28;20028;-61
2021/04/13 15:00:25;;;;;;;1.25;0.60;;;;;;;;;;4968797;28;20034;-61
2021/04/13 15:02:51;;;;;;;0.85;0.47;;;;;;;;;;4984122;28;20027;-62
2021/04/13 15:05:16;;;;;;;1.77;0.60;;;;;;;;;;4968871;28;20039;-62
2021/04/13 15:07:42;;;;;;;1.25;0.60;;;;;;;;;;4966386;28;20032;-62
2021/04/13 15:10:09;;;;;;;1.08;0.50;;;;;;;;;;4948244;28;20029;-61
2021/04/13 15:12:35;;;;;;;1.73;0.50;;;;;;;;;;4948454;28;20077;-62
2021/04/13 15:15:00;;;;;;;1.10;0.50;;;;;;;;;;4969902;28;20100;-63
2021/04/13 15:17:26;;;;;;;1.42;0.50;;;;;;;;;;4971316;28;20046;-63
2021/04/13 15:19:52;;;;;;;0.77;0.50;;;;;;;;;;4969880;28;20196;-62
2021/04/13 15:22:24;;;;;;;1.80;0.60;;;;;;;;;;4983437;28;20043;-62
2021/04/13 15:24:50;;;;;;;0.95;0.40;;;;;;;;;;4971857;28;20929;-62
2021/04/13 15:27:16;;;;;;;1.13;0.60;;;;;;;;;;4969168;28;20569;-62
2021/04/13 15:29:41;;;;;;;2.70;0.70;;;;;;;;;;4970119;28;20086;-62
2021/04/13 15:32:07;;;;;;;0.80;0.68;;;;;;;;;;4985248;28;20046;-63